Time;durP1;ratioP1;P1;durP2;ratioP2;P2;SDS_P1;SDS_P2;PMS_P1;PMS_P2;Temp;Humidity;BMP_temperature;BMP_pressure;BME280_temperature;BME280_humidity;BME280_pressure;Samples;Min_cycle;Max_cycle;Signal;HPM_P1;HPM_P2
2023/08/07 00:01:07;;;;;;;3.80;1.00;;;;;;;14.88;100.00;97791.58;109502;1253;59961;-60
2023/08/07 00:03:54;;;;;;;3.50;0.80;;;;;;;14.86;100.00;97798.14;109424;1251;70861;-62
2023/08/07 00:06:40;;;;;;;4.80;0.90;;;;;;;14.83;100.00;97794.09;109600;1254;66623;-62
2023/08/07 00:09:28;;;;;;;4.40;0.90;;;;;;;14.81;100.00;97796.98;109625;1255;71471;-62
2023/08/07 00:12:14;;;;;;;3.70;0.90;;;;;;;14.80;100.00;97801.41;109591;1251;58068;-62
2023/08/07 00:15:03;;;;;;;3.90;0.90;;;;;;;14.78;100.00;97799.48;109288;1252;60296;-63
2023/08/07 00:17:49;;;;;;;3.50;0.90;;;;;;;14.79;100.00;97804.09;109534;1253;72877;-62
2023/08/07 00:20:36;;;;;;;4.00;0.90;;;;;;;14.75;100.00;97797.94;109423;1253;66334;-60
2023/08/07 00:23:24;;;;;;;2.80;0.70;;;;;;;14.71;100.00;97795.13;109363;1253;72525;-63
2023/08/07 00:26:11;;;;;;;4.00;0.80;;;;;;;14.68;100.00;97797.34;109359;1253;59345;-60
2023/08/07 00:28:58;;;;;;;4.20;1.00;;;;;;;14.59;100.00;97792.17;109453;1253;61220;-63
2023/08/07 00:31:46;;;;;;;4.30;0.80;;;;;;;14.53;100.00;97790.83;109395;1252;72234;-62
2023/08/07 00:34:36;;;;;;;3.90;0.80;;;;;;;14.44;100.00;97791.21;109490;1254;65803;-64
2023/08/07 00:37:24;;;;;;;3.10;0.80;;;;;;;14.38;100.00;97794.89;109372;1253;71280;-62
2023/08/07 00:40:11;;;;;;;3.10;0.80;;;;;;;14.37;100.00;97793.60;109263;1253;59503;-62
2023/08/07 00:42:58;;;;;;;3.60;0.80;;;;;;;14.33;100.00;97797.83;109664;1253;58938;-63
2023/08/07 00:45:49;;;;;;;3.40;0.70;;;;;;;14.28;100.00;97800.40;109461;1252;71555;-61
2023/08/07 00:48:39;;;;;;;2.90;0.70;;;;;;;14.26;100.00;97795.57;109498;1254;67872;-62
2023/08/07 00:51:28;;;;;;;2.90;0.70;;;;;;;14.24;100.00;97788.12;109440;1254;72837;-62
2023/08/07 00:54:19;;;;;;;2.80;0.80;;;;;;;14.22;100.00;97784.13;109486;1254;60364;-61
2023/08/07 00:57:14;;;;;;;3.30;1.00;;;;;;;14.22;100.00;97789.99;109616;1254;60506;-60
2023/08/07 01:00:02;;;;;;;3.50;0.80;;;;;;;14.21;100.00;97782.79;109572;1254;73141;-62
2023/08/07 01:02:51;;;;;;;3.40;0.90;;;;;;;14.20;100.00;97787.20;109631;1254;67983;-61
2023/08/07 01:05:38;;;;;;;5.10;1.00;;;;;;;14.19;100.00;97775.05;109642;1254;72567;-62
2023/08/07 01:08:25;;;;;;;4.40;0.90;;;;;;;14.18;100.00;97766.57;109596;1252;60332;-61
2023/08/07 01:11:44;;;;;;;3.80;0.90;;;;;;;14.18;100.00;97766.03;109663;1254;58735;-62
2023/08/07 01:14:58;;;;;;;3.80;0.80;;;;;;;14.16;100.00;97766.84;109604;1253;72033;-60
2023/08/07 01:17:46;;;;;;;4.10;0.90;;;;;;;14.13;100.00;97770.77;109648;1251;66408;-61
2023/08/07 01:20:32;;;;;;;3.30;0.90;;;;;;;14.11;100.00;97772.48;109557;1253;72421;-61
2023/08/07 01:23:19;;;;;;;3.80;0.80;;;;;;;14.09;100.00;97773.13;109559;1254;58185;-63
2023/08/07 01:26:06;;;;;;;2.60;0.70;;;;;;;14.08;100.00;97769.68;109713;1252;60196;-61
2023/08/07 01:29:23;;;;;;;2.90;0.80;;;;;;;14.07;100.00;97761.61;109434;1251;73177;-61
2023/08/07 01:32:15;;;;;;;3.80;0.70;;;;;;;14.06;100.00;97756.92;109704;1251;67892;-62
2023/08/07 01:35:08;;;;;;;3.40;0.80;;;;;;;14.02;100.00;97751.25;109647;1253;71365;-61
2023/08/07 01:37:59;;;;;;;3.80;0.80;;;;;;;13.96;100.00;97743.58;109565;1253;59404;-62
2023/08/07 01:40:47;;;;;;;3.40;0.80;;;;;;;13.94;100.00;97733.48;109475;1253;58867;-61
2023/08/07 01:43:33;;;;;;;4.80;0.80;;;;;;;13.92;100.00;97726.61;109711;1252;70780;-63
2023/08/07 01:46:41;;;;;;;3.10;0.90;;;;;;;13.89;100.00;97725.73;109685;1253;67771;-63
2023/08/07 01:49:57;;;;;;;3.50;0.80;;;;;;;13.85;100.00;97727.60;109581;1251;70426;-61
2023/08/07 01:52:49;;;;;;;4.00;0.90;;;;;;;13.85;100.00;97727.33;109671;1251;59237;-61
2023/08/07 01:55:36;;;;;;;3.90;0.90;;;;;;;13.83;100.00;97728.36;109391;1254;58826;-61
2023/08/07 01:58:23;;;;;;;4.00;0.90;;;;;;;13.82;100.00;97727.05;109584;1251;72292;-59
2023/08/07 02:01:09;;;;;;;5.00;0.90;;;;;;;13.81;100.00;97722.31;109597;1253;66357;-60
2023/08/07 02:04:02;;;;;;;4.60;1.00;;;;;;;13.81;100.00;97727.17;109679;1254;73808;-60
2023/08/07 02:06:49;;;;;;;4.00;0.90;;;;;;;13.78;100.00;97732.66;109467;1252;60568;-60
2023/08/07 02:09:36;;;;;;;3.20;0.80;;;;;;;13.78;100.00;97733.16;109430;1252;58858;-60
2023/08/07 02:12:22;;;;;;;3.40;0.80;;;;;;;13.80;100.00;97739.42;109611;1252;72175;-60
2023/08/07 02:15:10;;;;;;;3.30;0.90;;;;;;;13.83;100.00;97728.80;109632;1252;67677;-61
2023/08/07 02:17:57;;;;;;;6.30;1.20;;;;;;;13.86;100.00;97720.24;109444;1253;71428;-61
2023/08/07 02:20:46;;;;;;;4.20;0.90;;;;;;;13.87;100.00;97710.65;109646;1252;58034;-62
2023/08/07 02:23:34;;;;;;;4.00;1.10;;;;;;;13.86;100.00;97707.77;109559;1252;58837;-60
2023/08/07 02:26:21;;;;;;;3.70;0.80;;;;;;;13.84;100.00;97702.31;109324;1252;72487;-60
2023/08/07 02:29:29;;;;;;;4.00;0.80;;;;;;;13.84;100.00;97701.28;109648;1251;68645;-64
2023/08/07 02:32:17;;;;;;;3.80;1.00;;;;;;;13.86;100.00;97694.63;109623;1251;72716;-62
2023/08/07 02:35:05;;;;;;;3.90;0.80;;;;;;;13.87;100.00;97700.88;109623;1252;59270;-61
2023/08/07 02:37:52;;;;;;;2.90;0.70;;;;;;;13.88;100.00;97711.86;109523;1254;61040;-60
2023/08/07 02:40:39;;;;;;;4.00;0.90;;;;;;;13.86;100.00;97713.83;109345;1254;72181;-60
2023/08/07 02:43:28;;;;;;;4.50;0.90;;;;;;;13.87;100.00;97712.14;109608;1252;68210;-60
2023/08/07 02:46:15;;;;;;;2.80;0.80;;;;;;;13.88;100.00;97718.45;109469;1252;71490;-59
2023/08/07 02:49:02;;;;;;;5.10;1.00;;;;;;;13.88;100.00;97725.81;109601;1253;59427;-61
2023/08/07 02:51:48;;;;;;;3.90;0.90;;;;;;;13.89;100.00;97723.23;109433;1253;60187;-60
2023/08/07 02:54:37;;;;;;;2.90;0.70;;;;;;;13.90;100.00;97723.80;109313;1254;73208;-60
2023/08/07 02:57:25;;;;;;;3.20;0.80;;;;;;;13.92;100.00;97740.92;109601;1252;68709;-62
2023/08/07 03:00:12;;;;;;;5.30;1.00;;;;;;;13.93;100.00;97743.60;109488;1253;72801;-60
2023/08/07 03:02:59;;;;;;;3.30;0.90;;;;;;;13.95;100.00;97735.67;109577;1253;58418;-61
2023/08/07 03:05:52;;;;;;;2.90;0.80;;;;;;;13.96;100.00;97738.77;109567;1253;60050;-63
2023/08/07 03:08:39;;;;;;;4.90;0.80;;;;;;;13.98;100.00;97733.72;109289;1254;73107;-61
2023/08/07 03:11:27;;;;;;;3.20;0.80;;;;;;;14.01;100.00;97738.70;109433;1254;66513;-63
2023/08/07 03:14:13;;;;;;;4.70;0.90;;;;;;;13.99;100.00;97746.36;109520;1254;73594;-62
2023/08/07 03:17:04;;;;;;;4.10;0.90;;;;;;;14.01;100.00;97750.30;109391;1251;59570;-63
2023/08/07 03:19:52;;;;;;;3.10;0.80;;;;;;;14.04;100.00;97755.80;109459;1251;60160;-62
2023/08/07 03:22:39;;;;;;;3.00;0.80;;;;;;;14.05;100.00;97751.03;109585;1253;73487;-62
2023/08/07 03:25:26;;;;;;;3.00;0.80;;;;;;;14.07;100.00;97748.27;109604;1251;68169;-62
2023/08/07 03:28:14;;;;;;;3.80;0.90;;;;;;;14.06;100.00;97746.43;109493;1253;72713;-60
2023/08/07 03:31:02;;;;;;;2.60;0.70;;;;;;;14.06;100.00;97744.65;109452;1253;60361;-64
2023/08/07 03:33:53;;;;;;;2.60;0.70;;;;;;;14.07;100.00;97733.44;109458;1253;58992;-63
2023/08/07 03:36:39;;;;;;;4.10;0.90;;;;;;;14.09;100.00;97725.66;109601;1253;72000;-64
2023/08/07 03:39:27;;;;;;;2.90;0.80;;;;;;;14.13;100.00;97730.86;109594;1252;67580;-61
2023/08/07 03:42:17;;;;;;;2.40;0.60;;;;;;;14.18;100.00;97738.49;109580;1251;71435;-61
2023/08/07 03:45:06;;;;;;;3.10;0.80;;;;;;;14.20;100.00;97747.77;109465;1251;59411;-62
2023/08/07 03:47:53;;;;;;;3.20;0.80;;;;;;;14.22;100.00;97752.55;109665;1251;58804;-62
2023/08/07 03:50:39;;;;;;;2.80;0.70;;;;;;;14.23;100.00;97764.66;109617;1251;72102;-61
2023/08/07 03:53:28;;;;;;;2.60;0.60;;;;;;;14.22;100.00;97785.52;109490;1253;67102;-62
2023/08/07 03:56:19;;;;;;;3.60;0.90;;;;;;;14.21;100.00;97801.48;109394;1252;72627;-63
2023/08/07 03:59:06;;;;;;;3.20;0.80;;;;;;;14.24;100.00;97807.09;109432;1253;58445;-62
2023/08/07 04:01:55;;;;;;;3.40;0.90;;;;;;;14.19;100.00;97789.37;109532;1253;58950;-61
2023/08/07 04:04:43;;;;;;;3.70;0.90;;;;;;;14.11;100.00;97788.63;109607;1253;73265;-63
2023/08/07 04:07:30;;;;;;;3.80;0.90;;;;;;;14.07;100.00;97781.57;109546;1251;66423;-63
2023/08/07 04:10:16;;;;;;;3.40;0.80;;;;;;;14.05;100.00;97783.25;109396;1251;71213;-61
2023/08/07 04:13:07;;;;;;;3.40;0.90;;;;;;;14.01;100.00;97781.49;109543;1253;58907;-64
2023/08/07 04:15:56;;;;;;;3.00;0.90;;;;;;;13.99;100.00;97779.76;109415;1252;60474;-63
2023/08/07 04:18:44;;;;;;;2.60;0.80;;;;;;;14.00;100.00;97775.77;109490;1251;71060;-63
2023/08/07 04:21:31;;;;;;;4.40;0.80;;;;;;;14.06;100.00;97778.80;109583;1252;68767;-64
2023/08/07 04:24:25;;;;;;;4.20;1.10;;;;;;;14.15;100.00;97766.46;109571;1252;73387;-64
2023/08/07 04:27:12;;;;;;;2.40;0.70;;;;;;;14.12;100.00;97758.63;109257;1254;58444;-65
2023/08/07 04:29:58;;;;;;;3.70;0.90;;;;;;;14.11;100.00;97766.98;109489;1252;60061;-62
2023/08/07 04:32:46;;;;;;;3.30;0.90;;;;;;;14.06;100.00;97769.91;109477;1252;73295;-64
2023/08/07 04:35:35;;;;;;;2.40;0.70;;;;;;;14.06;100.00;97772.30;109550;1252;65421;-64
2023/08/07 04:38:23;;;;;;;3.00;0.80;;;;;;;14.04;100.00;97778.02;109384;1253;72554;-64
2023/08/07 04:41:11;;;;;;;4.00;0.80;;;;;;;14.07;100.00;97772.35;109210;1253;60415;-66
2023/08/07 04:43:58;;;;;;;2.90;0.80;;;;;;;14.12;100.00;97770.48;109077;1253;429091;-63
2023/08/07 04:46:45;;;;;;;2.70;0.60;;;;;;;14.18;100.00;97779.98;109216;1251;71158;-62
2023/08/07 04:49:32;;;;;;;2.60;0.70;;;;;;;14.20;100.00;97791.84;109365;1252;66683;-63
2023/08/07 04:52:19;;;;;;;3.10;0.80;;;;;;;14.19;100.00;97793.80;109408;1253;71418;-60
2023/08/07 04:55:13;;;;;;;2.60;0.70;;;;;;;14.11;100.00;97794.18;109320;1252;57576;-61
2023/08/07 04:58:00;;;;;;;3.10;0.90;;;;;;;14.08;100.00;97791.52;109298;1252;60615;-63
2023/08/07 05:00:47;;;;;;;3.00;0.80;;;;;;;14.11;100.00;97799.24;109349;1253;70722;-64
2023/08/07 05:03:34;;;;;;;3.50;0.80;;;;;;;14.10;99.87;97804.70;109238;1252;66296;-62
2023/08/07 05:06:25;;;;;;;3.00;0.80;;;;;;;14.10;99.67;97805.17;109407;1252;72383;-64
2023/08/07 05:09:14;;;;;;;3.00;0.90;;;;;;;14.12;99.52;97806.41;109249;1252;59502;-63
2023/08/07 05:12:07;;;;;;;3.80;1.10;;;;;;;14.13;99.09;97798.51;109455;1252;58292;-63
2023/08/07 05:14:54;;;;;;;3.20;0.90;;;;;;;14.16;98.79;97793.63;109444;1253;72072;-64
2023/08/07 05:17:41;;;;;;;4.10;0.80;;;;;;;14.21;98.25;97802.38;109407;1252;66845;-61
2023/08/07 05:20:28;;;;;;;3.00;0.80;;;;;;;14.30;97.77;97809.67;109480;1251;73682;-60
2023/08/07 05:23:17;;;;;;;3.60;0.90;;;;;;;14.34;96.91;97816.61;109472;1252;58050;-66
2023/08/07 05:26:05;;;;;;;3.20;0.90;;;;;;;14.43;96.25;97813.55;109522;1256;60240;-64
2023/08/07 05:28:56;;;;;;;4.10;0.80;;;;;;;14.49;95.67;97811.15;109439;1253;70227;-70
2023/08/07 05:31:46;;;;;;;3.20;0.80;;;;;;;14.54;95.48;97800.44;109511;1252;67560;-69
2023/08/07 05:34:34;;;;;;;3.40;0.70;;;;;;;14.62;94.93;97788.21;109411;1252;73063;-71
2023/08/07 05:37:26;;;;;;;4.30;0.90;;;;;;;14.79;93.89;97783.53;109322;1251;59440;-66
2023/08/07 05:40:20;;;;;;;4.10;1.10;;;;;;;14.95;93.22;97781.64;109459;1251;59987;-69
2023/08/07 05:43:24;;;;;;;3.60;0.90;;;;;;;15.21;91.83;97770.86;109347;1252;71731;-70
2023/08/07 05:46:14;;;;;;;3.00;0.90;;;;;;;15.71;88.39;97765.41;109248;1252;66618;-71
2023/08/07 05:49:02;;;;;;;3.70;0.90;;;;;;;15.90;87.54;97775.27;109309;1252;71955;-71
2023/08/07 05:51:48;;;;;;;5.80;1.00;;;;;;;16.17;85.61;97783.54;109559;1253;59622;-73
2023/08/07 05:54:38;;;;;;;3.70;0.90;;;;;;;16.55;84.36;97782.57;109465;1252;59370;-73
2023/08/07 05:57:32;;;;;;;4.40;0.90;;;;;;;17.16;80.51;97780.48;109235;1253;72222;-74
2023/08/07 06:00:29;;;;;;;5.30;0.90;;;;;;;17.54;77.96;97780.23;109342;1252;67973;-72
2023/08/07 06:03:31;;;;;;;;;;;;;;;;;;;;;
2023/08/07 06:06:25;;;;;;;3.20;0.80;;;;;;;18.71;73.36;97784.09;109314;1252;58001;-71
2023/08/07 06:09:15;;;;;;;4.10;1.10;;;;;;;18.85;71.89;97787.38;109494;1252;58728;-71
2023/08/07 06:12:08;;;;;;;3.50;1.00;;;;;;;19.03;69.97;97799.24;109238;1254;73212;-73
2023/08/07 06:14:55;;;;;;;4.30;0.90;;;;;;;18.88;69.45;97798.31;109124;1251;68868;-70
2023/08/07 06:17:45;;;;;;;3.00;0.80;;;;;;;18.98;70.25;97810.70;109493;1251;72786;-68
2023/08/07 06:20:33;;;;;;;4.20;0.90;;;;;;;18.77;69.94;97801.27;109556;1251;57046;-72
2023/08/07 06:23:23;;;;;;;5.00;1.00;;;;;;;18.67;70.43;97793.64;109631;1252;59068;-73
2023/08/07 06:26:11;;;;;;;2.90;0.80;;;;;;;18.51;70.43;97792.27;109458;1252;71035;-69
2023/08/07 06:29:02;;;;;;;4.10;1.00;;;;;;;18.18;71.28;97808.30;109401;1252;67232;-71
2023/08/07 06:31:56;;;;;;;3.20;0.80;;;;;;;17.80;73.06;97809.34;109182;1254;72918;-68
2023/08/07 06:34:59;;;;;;;2.70;0.70;;;;;;;17.21;74.97;97789.87;108979;1254;58027;-66
2023/08/07 06:37:48;;;;;;;3.40;0.80;;;;;;;16.92;76.75;97787.86;109185;1254;59477;-67
2023/08/07 06:40:38;;;;;;;3.60;0.90;;;;;;;16.96;77.33;97800.29;109322;1254;71280;-64
2023/08/07 06:43:25;;;;;;;4.00;0.80;;;;;;;16.95;76.81;97804.89;109311;1254;68888;-66
2023/08/07 06:46:12;;;;;;;4.00;0.90;;;;;;;16.96;76.54;97820.42;109142;1254;73050;-65
2023/08/07 06:48:59;;;;;;;3.00;0.80;;;;;;;16.92;77.28;97815.25;109206;1254;56978;-64
2023/08/07 06:51:48;;;;;;;3.40;0.90;;;;;;;16.78;78.16;97812.95;109063;1254;58734;-66
2023/08/07 06:54:34;;;;;;;4.90;1.00;;;;;;;16.85;78.28;97819.61;109140;1254;72290;-64
2023/08/07 06:57:21;;;;;;;3.80;0.90;;;;;;;16.99;77.45;97822.96;109137;1254;66766;-61
2023/08/07 07:00:10;;;;;;;4.50;0.90;;;;;;;17.02;77.24;97830.42;109123;1254;71225;-62
2023/08/07 07:02:57;;;;;;;3.20;0.90;;;;;;;17.13;76.61;97839.30;109165;1254;57009;-64
2023/08/07 07:05:50;;;;;;;4.90;1.00;;;;;;;17.28;76.11;97838.04;109348;1254;58776;-66
2023/08/07 07:08:38;;;;;;;4.10;1.00;;;;;;;17.30;76.02;97843.16;109201;1251;72054;-64
2023/08/07 07:11:26;;;;;;;4.30;0.80;;;;;;;17.62;74.93;97853.73;109465;1251;68255;-66
2023/08/07 07:14:12;;;;;;;4.80;0.80;;;;;;;17.92;73.06;97856.65;109485;1251;71576;-66
2023/08/07 07:16:59;;;;;;;3.40;0.90;;;;;;;18.13;72.58;97854.95;109502;1252;56804;-65
2023/08/07 07:19:48;;;;;;;4.20;0.90;;;;;;;18.78;70.10;97855.14;109423;1252;58942;-66
2023/08/07 07:22:39;;;;;;;3.30;0.80;;;;;;;19.26;67.58;97860.38;109427;1252;70231;-67
2023/08/07 07:25:27;;;;;;;3.70;0.90;;;;;;;19.20;67.45;97852.91;109439;1251;68048;-66
2023/08/07 07:28:15;;;;;;;3.40;0.70;;;;;;;19.31;66.75;97854.34;109149;1251;72357;-67
2023/08/07 07:31:03;;;;;;;3.40;0.90;;;;;;;19.63;66.81;97850.98;109489;1252;57681;-67
2023/08/07 07:33:50;;;;;;;2.90;0.70;;;;;;;19.61;64.20;97840.95;109423;1252;61362;-67
2023/08/07 07:36:38;;;;;;;3.50;0.90;;;;;;;19.64;64.19;97840.31;109381;1252;72224;-65
2023/08/07 07:39:28;;;;;;;4.70;1.00;;;;;;;19.92;63.87;97841.88;109286;1251;65679;-64
2023/08/07 07:42:16;;;;;;;4.10;1.00;;;;;;;19.80;63.02;97852.08;109593;1251;74096;-65
2023/08/07 07:45:04;;;;;;;3.40;0.90;;;;;;;20.08;62.84;97855.71;109504;1252;57843;-66
2023/08/07 07:47:51;;;;;;;4.20;0.90;;;;;;;20.41;61.21;97850.96;109571;1252;58895;-64
2023/08/07 07:50:38;;;;;;;3.40;0.70;;;;;;;21.06;60.26;97841.51;109481;1252;73338;-67
2023/08/07 07:53:25;;;;;;;3.70;0.80;;;;;;;20.99;58.42;97831.90;109349;1256;67893;-66
2023/08/07 07:56:12;;;;;;;3.70;0.80;;;;;;;21.12;57.71;97837.34;109417;1251;71206;-66
2023/08/07 07:58:58;;;;;;;2.90;0.80;;;;;;;20.78;58.44;97846.04;109342;1253;59224;-65
2023/08/07 08:01:46;;;;;;;3.50;0.90;;;;;;;20.59;59.73;97849.13;109463;1254;59470;-69
2023/08/07 08:04:35;;;;;;;3.90;1.00;;;;;;;20.18;61.33;97859.21;109365;1253;72622;-64
2023/08/07 08:07:22;;;;;;;3.10;0.80;;;;;;;19.80;62.42;97863.61;109521;1252;66665;-64
2023/08/07 08:10:09;;;;;;;4.30;0.90;;;;;;;19.35;63.90;97865.37;109411;1252;71243;-68
2023/08/07 08:12:58;;;;;;;3.40;0.80;;;;;;;18.94;65.63;97864.53;109247;1252;57970;-68
2023/08/07 08:15:45;;;;;;;3.70;0.90;;;;;;;18.49;67.43;97867.48;109618;1251;58697;-67
2023/08/07 08:18:32;;;;;;;4.40;1.10;;;;;;;17.98;69.25;97873.10;109573;1251;70764;-67
2023/08/07 08:21:19;;;;;;;3.50;0.70;;;;;;;17.59;70.99;97870.30;109551;1252;66867;-70
2023/08/07 08:24:06;;;;;;;4.00;0.90;;;;;;;17.54;71.81;97872.63;109305;1252;72820;-64
2023/08/07 08:26:53;;;;;;;4.30;0.90;;;;;;;17.44;72.19;97870.98;109252;1252;56986;-65
2023/08/07 08:29:41;;;;;;;3.90;0.90;;;;;;;17.34;72.51;97866.80;109246;1253;59936;-67
2023/08/07 08:32:28;;;;;;;3.10;0.80;;;;;;;17.24;73.12;97870.91;109417;1252;73221;-66
2023/08/07 08:35:15;;;;;;;3.40;0.70;;;;;;;17.20;73.65;97870.77;109381;1253;69049;-63
2023/08/07 08:38:03;;;;;;;5.00;0.90;;;;;;;17.23;73.50;97874.10;109362;1253;72521;-65
2023/08/07 08:40:51;;;;;;;4.90;1.10;;;;;;;17.27;73.69;97874.27;109153;1253;57101;-67
2023/08/07 08:43:40;;;;;;;3.80;0.90;;;;;;;17.40;73.14;97879.36;109420;1254;59375;-69
2023/08/07 08:46:29;;;;;;;3.40;0.70;;;;;;;17.42;72.30;97877.48;109349;1254;72038;-68
2023/08/07 08:49:26;;;;;;;4.20;0.90;;;;;;;17.42;72.02;97872.77;109363;1252;68310;-63
2023/08/07 08:52:13;;;;;;;3.50;0.80;;;;;;;17.48;72.21;97880.71;109290;1252;71399;-64
2023/08/07 08:55:01;;;;;;;4.20;1.00;;;;;;;17.21;72.37;97893.82;109330;1253;58733;-63
2023/08/07 08:57:56;;;;;;;3.90;1.00;;;;;;;17.30;72.43;97903.88;109473;1251;59113;-67
2023/08/07 09:00:43;;;;;;;4.00;1.00;;;;;;;17.57;70.99;97902.45;109527;1252;72393;-64
2023/08/07 09:03:30;;;;;;;3.50;0.80;;;;;;;17.71;70.22;97912.80;109557;1251;67675;-67
2023/08/07 09:06:17;;;;;;;3.50;0.90;;;;;;;18.20;68.80;97919.55;109250;1252;72904;-68
2023/08/07 09:09:09;;;;;;;4.60;1.10;;;;;;;18.48;67.70;97933.04;109332;1252;56909;-66
2023/08/07 09:12:01;;;;;;;4.80;1.10;;;;;;;18.66;67.34;97945.62;109459;1251;59004;-66
2023/08/07 09:14:56;;;;;;;3.60;1.00;;;;;;;19.01;65.45;97944.41;109589;1251;73194;-66
2023/08/07 09:17:45;;;;;;;4.10;0.90;;;;;;;19.50;64.17;97950.62;109476;1252;66475;-67
2023/08/07 09:20:42;;;;;;;3.40;0.80;;;;;;;19.72;61.95;97949.73;109527;1252;73678;-65
2023/08/07 09:23:46;;;;;;;3.70;0.90;;;;;;;19.23;63.31;97950.39;109240;1251;57905;-66
2023/08/07 09:26:35;;;;;;;3.70;0.90;;;;;;;19.02;64.35;97941.66;109447;1252;59210;-65
2023/08/07 09:29:22;;;;;;;4.00;0.80;;;;;;;18.71;64.71;97949.77;109424;1251;73342;-66
2023/08/07 09:32:12;;;;;;;3.90;0.90;;;;;;;18.62;65.70;97951.00;109504;1251;68277;-63
2023/08/07 09:35:03;;;;;;;5.50;1.00;;;;;;;18.55;65.62;97952.77;109480;1251;71275;-64
2023/08/07 09:37:50;;;;;;;5.50;0.90;;;;;;;18.41;66.25;97973.67;109475;1252;57067;-67
2023/08/07 09:40:38;;;;;;;4.10;0.90;;;;;;;18.43;66.80;97980.53;109523;1251;59089;-64
2023/08/07 09:43:26;;;;;;;5.10;1.40;;;;;;;18.48;66.64;97981.77;109289;1251;72342;-66
2023/08/07 09:46:13;;;;;;;3.50;0.80;;;;;;;18.39;66.18;97986.48;109547;1252;67667;-64
2023/08/07 09:49:00;;;;;;;4.20;0.80;;;;;;;18.19;66.43;97985.61;109176;1256;71533;-65
2023/08/07 09:51:50;;;;;;;4.60;1.10;;;;;;;17.97;67.93;97977.45;109060;1257;58022;-64
2023/08/07 09:54:38;;;;;;;4.50;0.90;;;;;;;18.01;68.90;97987.12;109112;1256;60723;-64
2023/08/07 09:57:26;;;;;;;4.20;0.90;;;;;;;17.93;68.90;97983.98;109179;1256;71283;-64
2023/08/07 10:00:15;;;;;;;3.90;0.90;;;;;;;17.77;69.24;97984.84;109155;1256;68868;-63
2023/08/07 10:03:05;;;;;;;4.20;1.00;;;;;;;17.69;69.56;97989.80;108864;1259;72734;-65
2023/08/07 10:05:53;;;;;;;5.60;1.10;;;;;;;17.58;69.74;97993.14;108955;1259;57748;-66
2023/08/07 10:08:42;;;;;;;4.00;1.00;;;;;;;17.32;70.60;97995.58;108976;1259;60226;-67
2023/08/07 10:11:29;;;;;;;4.40;1.00;;;;;;;17.17;71.21;97979.48;108880;1259;70162;-66
2023/08/07 10:14:18;;;;;;;4.30;1.00;;;;;;;17.19;71.31;97979.26;108965;1259;67899;-65
2023/08/07 10:17:09;;;;;;;5.30;1.40;;;;;;;17.23;70.76;97967.09;109023;1259;71233;-61
2023/08/07 10:20:00;;;;;;;4.60;1.20;;;;;;;17.30;69.98;97972.64;109060;1257;58921;-63
2023/08/07 10:22:47;;;;;;;4.80;1.10;;;;;;;17.40;69.54;97981.70;109238;1255;59015;-64
2023/08/07 10:25:38;;;;;;;5.80;1.20;;;;;;;17.36;69.53;97982.73;109359;1256;72054;-63
2023/08/07 10:28:26;;;;;;;5.00;1.90;;;;;;;17.43;69.97;97994.34;109280;1258;66657;-63
2023/08/07 10:31:18;;;;;;;5.00;1.30;;;;;;;17.44;69.51;98013.40;109014;1261;72580;-66
2023/08/07 10:34:05;;;;;;;5.50;1.10;;;;;;;17.58;68.46;98011.46;109289;1252;58934;-63
2023/08/07 10:36:52;;;;;;;5.40;1.40;;;;;;;17.79;67.07;97995.26;109332;1253;61427;-66
2023/08/07 10:40:09;;;;;;;6.20;1.20;;;;;;;17.93;66.08;98000.16;109272;1252;72931;-64
2023/08/07 10:43:16;;;;;;;5.70;1.30;;;;;;;18.10;64.88;97984.73;109363;1252;66745;-67
2023/08/07 10:46:25;;;;;;;5.40;1.60;;;;;;;18.30;64.14;97994.96;109235;1253;73737;-65
2023/08/07 10:49:34;;;;;;;7.70;1.50;;;;;;;18.51;63.09;98001.67;109538;1252;57665;-63
2023/08/07 10:52:26;;;;;;;6.00;1.30;;;;;;;18.32;62.87;97997.30;109153;1253;61633;-65
2023/08/07 10:55:14;;;;;;;6.50;1.40;;;;;;;18.41;63.20;98005.98;109311;1252;73226;-63
2023/08/07 10:58:01;;;;;;;5.70;1.30;;;;;;;18.41;63.20;98012.82;109318;1251;67794;-65
2023/08/07 11:00:47;;;;;;;4.40;1.10;;;;;;;18.29;62.44;98012.16;109422;1252;71471;-65
2023/08/07 11:03:42;;;;;;;8.90;1.40;;;;;;;18.62;62.16;97995.78;109478;1252;57757;-64
2023/08/07 11:06:34;;;;;;;5.40;1.50;;;;;;;18.59;62.00;97993.69;109475;1252;60678;-64
2023/08/07 11:09:22;;;;;;;7.10;1.60;;;;;;;18.81;61.55;97989.08;109478;1253;73036;-66
2023/08/07 11:12:08;;;;;;;6.10;1.40;;;;;;;19.16;60.69;97990.27;109515;1253;67888;-64
2023/08/07 11:14:59;;;;;;;6.50;1.30;;;;;;;19.05;60.10;97996.56;109453;1252;72447;-66
2023/08/07 11:17:46;;;;;;;6.50;1.40;;;;;;;19.35;59.22;98005.39;109461;1253;57337;-63
2023/08/07 11:20:34;;;;;;;5.00;1.30;;;;;;;19.43;59.21;98013.91;109498;1252;61436;-64
2023/08/07 11:23:27;;;;;;;5.90;1.20;;;;;;;19.26;58.74;98002.87;109523;1253;71915;-65
2023/08/07 11:26:14;;;;;;;5.70;1.10;;;;;;;19.12;59.80;98011.61;109546;1252;67740;-66
2023/08/07 11:29:01;;;;;;;5.80;1.10;;;;;;;19.01;60.63;98023.55;109220;1251;72527;-64
2023/08/07 11:31:47;;;;;;;5.00;1.00;;;;;;;18.88;60.90;98033.80;109547;1252;57104;-64
2023/08/07 11:34:35;;;;;;;6.80;1.30;;;;;;;18.67;61.09;98042.75;109571;1252;58832;-68
2023/08/07 11:37:22;;;;;;;5.40;1.10;;;;;;;18.45;61.87;98045.14;109438;1251;73122;-69
2023/08/07 11:40:11;;;;;;;5.70;1.40;;;;;;;18.38;62.63;98030.56;109581;1252;66818;-67
2023/08/07 11:42:58;;;;;;;5.50;1.10;;;;;;;18.40;62.88;98027.61;109503;1252;73953;-67
2023/08/07 11:45:45;;;;;;;4.80;1.40;;;;;;;18.22;63.51;98029.08;109509;1252;57846;-65
2023/08/07 11:48:38;;;;;;;6.20;1.60;;;;;;;18.24;63.92;98031.38;109449;1251;59107;-63
2023/08/07 11:51:28;;;;;;;5.90;1.40;;;;;;;18.04;64.23;98035.48;109574;1252;73054;-66
2023/08/07 11:54:18;;;;;;;5.80;1.20;;;;;;;17.99;64.73;98032.88;109284;1253;68234;-65
2023/08/07 11:57:43;;;;;;;5.60;1.30;;;;;;;17.88;64.67;98046.34;109444;1253;71179;-68
2023/08/07 12:00:31;;;;;;;5.10;1.20;;;;;;;17.80;65.75;98051.17;109424;1253;56920;-68
2023/08/07 12:03:28;;;;;;;6.10;1.30;;;;;;;17.64;66.35;98042.94;109582;1251;58918;-63
2023/08/07 12:06:16;;;;;;;7.70;1.50;;;;;;;17.49;66.74;98037.77;109544;1253;72248;-67
2023/08/07 12:09:03;;;;;;;5.80;1.20;;;;;;;17.48;67.16;98047.00;109381;1253;66341;-67
2023/08/07 12:11:50;;;;;;;5.90;1.30;;;;;;;17.39;67.64;98047.84;109323;1251;70443;-65
2023/08/07 12:14:38;;;;;;;5.70;1.30;;;;;;;17.55;67.44;98026.05;109401;1253;57276;-65
2023/08/07 12:17:25;;;;;;;6.20;1.50;;;;;;;17.67;67.40;98033.02;109360;1252;59554;-65
2023/08/07 12:20:13;;;;;;;5.50;1.50;;;;;;;17.74;66.93;98043.55;109309;1253;72255;-64
2023/08/07 12:23:01;;;;;;;5.70;1.30;;;;;;;17.83;66.56;98033.64;109262;1253;67904;-65
2023/08/07 12:25:55;;;;;;;5.10;1.20;;;;;;;17.90;66.61;98037.67;109480;1254;71638;-65
2023/08/07 12:28:47;;;;;;;5.90;1.20;;;;;;;17.97;66.08;98036.73;109316;1253;57775;-65
2023/08/07 12:31:35;;;;;;;4.20;1.10;;;;;;;18.15;65.80;98035.99;109488;1251;60369;-67
2023/08/07 12:34:25;;;;;;;7.00;1.30;;;;;;;18.39;65.31;98034.05;109350;1252;72293;-64
2023/08/07 12:37:17;;;;;;;5.50;1.20;;;;;;;18.31;64.65;98039.45;109578;1253;68209;-65
2023/08/07 12:40:06;;;;;;;7.10;1.30;;;;;;;18.16;65.00;98051.52;109368;1253;73414;-67
2023/08/07 12:43:01;;;;;;;5.00;1.40;;;;;;;18.20;65.59;98063.83;109278;1253;56853;-64
2023/08/07 12:45:53;;;;;;;5.30;1.40;;;;;;;18.17;65.64;98067.02;109293;1254;60378;-67
2023/08/07 12:49:11;;;;;;;6.00;1.50;;;;;;;18.29;66.01;98061.88;109387;1253;72613;-66
2023/08/07 12:51:57;;;;;;;5.30;1.20;;;;;;;18.32;65.71;98052.44;109414;1253;66045;-63
2023/08/07 12:54:45;;;;;;;4.70;1.20;;;;;;;18.11;65.92;98035.54;109347;1254;73509;-62
2023/08/07 12:57:32;;;;;;;6.70;1.60;;;;;;;18.01;66.13;98033.70;109542;1251;58782;-68
2023/08/07 13:00:20;;;;;;;5.60;1.20;;;;;;;17.89;66.48;98025.30;109458;1252;58588;-66
2023/08/07 13:03:07;;;;;;;5.20;1.10;;;;;;;17.83;67.35;98050.91;109438;1253;72285;-65
2023/08/07 13:05:57;;;;;;;5.10;1.40;;;;;;;17.69;67.41;98057.02;109468;1253;68040;-65
2023/08/07 13:08:45;;;;;;;6.40;1.40;;;;;;;17.51;68.26;98074.85;109600;1252;71442;-65